createdAt,value
2022-12-31T00:01:10.262Z,4.35
2022-12-31T00:03:38.150Z,4.47
2022-12-31T00:06:21.827Z,3.78
2022-12-31T00:08:49.481Z,3.70
2022-12-31T00:11:16.519Z,3.30
2022-12-31T00:13:43.360Z,5.43
2022-12-31T00:16:14.686Z,3.35
2022-12-31T00:18:46.255Z,3.40
2022-12-31T00:21:14.066Z,3.65
2022-12-31T00:23:40.653Z,4.25
2022-12-31T00:26:10.406Z,4.43
2022-12-31T00:28:38.004Z,3.90
2022-12-31T00:31:10.477Z,4.13
2022-12-31T00:33:37.662Z,4.20
2022-12-31T00:36:16.924Z,3.97
2022-12-31T00:38:45.500Z,3.92
2022-12-31T00:41:13.513Z,4.35
2022-12-31T00:43:41.703Z,4.60
2022-12-31T00:46:08.991Z,4.40
2022-12-31T00:48:36.476Z,4.35
2022-12-31T00:51:05.255Z,4.28
2022-12-31T00:53:31.791Z,4.43
2022-12-31T00:56:03.862Z,4.80
2022-12-31T00:58:30.377Z,5.07
2022-12-31T01:00:57.291Z,4.68
2022-12-31T01:03:24.414Z,4.70
2022-12-31T01:05:52.205Z,4.30
2022-12-31T01:08:18.679Z,4.82
2022-12-31T01:11:10.197Z,5.93
2022-12-31T01:13:36.763Z,3.60
2022-12-31T01:16:10.793Z,5.50
2022-12-31T01:18:37.476Z,3.10
2022-12-31T01:21:06.692Z,3.08
2022-12-31T01:23:33.565Z,2.95
2022-12-31T01:26:01.908Z,3.55
2022-12-31T01:28:29.368Z,2.80
2022-12-31T01:30:56.218Z,1.92
2022-12-31T01:33:23.074Z,2.03
2022-12-31T01:35:51.899Z,1.98
2022-12-31T01:38:18.460Z,1.88
2022-12-31T01:40:44.982Z,2.60
2022-12-31T01:43:17.840Z,1.73
2022-12-31T01:45:52.332Z,1.90
2022-12-31T01:48:26.013Z,1.83
2022-12-31T01:50:54.807Z,1.45
2022-12-31T01:53:21.997Z,2.55
2022-12-31T01:55:54.067Z,1.60
2022-12-31T01:58:42.461Z,2.30
2022-12-31T02:01:13.161Z,1.75
2022-12-31T02:03:40.178Z,1.27
2022-12-31T02:06:20.063Z,1.13
2022-12-31T02:08:47.407Z,0.90
2022-12-31T02:11:31.399Z,1.30
2022-12-31T02:14:03.782Z,1.38
2022-12-31T02:16:34.592Z,1.35
2022-12-31T02:19:09.801Z,1.90
2022-12-31T02:21:53.955Z,0.93
2022-12-31T02:24:53.020Z,0.88
2022-12-31T02:27:29.710Z,1.00
2022-12-31T02:30:06.369Z,0.90
2022-12-31T02:33:02.884Z,0.80
2022-12-31T02:35:46.707Z,0.80
2022-12-31T02:38:19.255Z,1.20
2022-12-31T02:40:47.045Z,1.20
2022-12-31T02:43:13.695Z,1.05
2022-12-31T02:45:44.961Z,1.13
2022-12-31T02:48:35.809Z,1.13
2022-12-31T02:51:11.130Z,1.50
2022-12-31T02:54:02.282Z,1.77
2022-12-31T02:56:49.338Z,2.30
2022-12-31T02:59:44.206Z,1.70
2022-12-31T03:02:15.849Z,1.38
2022-12-31T03:04:46.619Z,1.67
2022-12-31T03:07:20.664Z,2.72
2022-12-31T03:09:47.280Z,1.85
2022-12-31T03:12:33.332Z,1.42
2022-12-31T03:15:00.288Z,1.38
2022-12-31T03:17:27.074Z,1.50
2022-12-31T03:20:11.980Z,1.75
2022-12-31T03:22:41.951Z,2.03
2022-12-31T03:25:34.840Z,1.75
2022-12-31T03:28:07.230Z,1.70
2022-12-31T03:30:33.918Z,1.80
2022-12-31T03:33:01.424Z,2.38
2022-12-31T03:35:29.502Z,2.15
2022-12-31T03:37:56.629Z,2.70
2022-12-31T03:40:24.995Z,3.03
2022-12-31T03:42:51.549Z,2.50
2022-12-31T03:45:18.401Z,3.10
2022-12-31T03:47:45.009Z,2.38
2022-12-31T03:50:14.114Z,2.70
2022-12-31T03:52:40.851Z,2.70
2022-12-31T03:55:08.873Z,2.90
2022-12-31T03:57:35.758Z,2.80
2022-12-31T04:00:02.963Z,4.03
2022-12-31T04:02:31.262Z,3.22
2022-12-31T04:04:57.988Z,3.25
2022-12-31T04:07:24.601Z,3.10
2022-12-31T04:09:51.098Z,3.15
2022-12-31T04:12:17.701Z,3.67
2022-12-31T04:14:44.242Z,3.60
2022-12-31T04:17:10.738Z,3.65
2022-12-31T04:19:37.663Z,4.07
2022-12-31T04:22:04.733Z,4.10
2022-12-31T04:24:31.366Z,4.40
2022-12-31T04:27:05.320Z,4.50
2022-12-31T04:29:33.643Z,4.38
2022-12-31T04:32:00.277Z,4.82
2022-12-31T04:34:27.053Z,4.25
2022-12-31T04:36:53.668Z,3.83
2022-12-31T04:39:20.288Z,3.22
2022-12-31T04:41:46.763Z,3.80
2022-12-31T04:44:13.621Z,3.83
2022-12-31T04:46:40.158Z,3.50
2022-12-31T04:49:07.594Z,3.95
2022-12-31T04:51:34.454Z,3.53
2022-12-31T04:54:01.190Z,3.78
2022-12-31T04:56:28.719Z,3.92
2022-12-31T04:58:55.410Z,3.80
2022-12-31T05:01:22.613Z,3.55
2022-12-31T05:03:49.441Z,3.15
2022-12-31T05:06:19.072Z,4.03
2022-12-31T05:08:46.101Z,3.72
2022-12-31T05:11:13.079Z,3.80
2022-12-31T05:13:40.233Z,4.10
2022-12-31T05:16:07.551Z,3.63
2022-12-31T05:18:34.854Z,3.50
2022-12-31T05:21:02.296Z,4.07
2022-12-31T05:23:29.093Z,4.15
2022-12-31T05:25:55.901Z,3.92
2022-12-31T05:28:22.432Z,4.30
2022-12-31T05:30:50.805Z,5.07
2022-12-31T05:33:18.644Z,4.22
2022-12-31T05:35:45.917Z,4.50
2022-12-31T05:38:12.588Z,5.15
2022-12-31T05:40:39.161Z,5.15
2022-12-31T05:43:05.742Z,6.25
2022-12-31T05:45:32.377Z,6.07
2022-12-31T05:47:58.984Z,6.60
2022-12-31T05:50:25.531Z,6.90
2022-12-31T05:52:56.227Z,6.18
2022-12-31T05:55:23.452Z,6.43
2022-12-31T05:57:50.073Z,6.88
2022-12-31T06:00:16.829Z,7.30
2022-12-31T06:02:44.872Z,7.82
2022-12-31T06:05:12.215Z,6.28
2022-12-31T06:07:38.833Z,6.63
2022-12-31T06:10:05.848Z,6.90
2022-12-31T06:12:32.518Z,5.72
2022-12-31T06:14:58.999Z,5.82
2022-12-31T06:17:25.494Z,5.05
2022-12-31T06:19:52.028Z,4.20
2022-12-31T06:22:18.606Z,3.15
2022-12-31T06:24:45.100Z,4.28
2022-12-31T06:27:11.722Z,3.88
2022-12-31T06:29:38.249Z,5.35
2022-12-31T06:32:05.134Z,3.58
2022-12-31T06:34:31.726Z,3.00
2022-12-31T06:36:59.181Z,3.25
2022-12-31T06:39:25.794Z,2.53
2022-12-31T06:41:52.320Z,2.97
2022-12-31T06:44:19.018Z,1.88
2022-12-31T06:46:45.759Z,1.88
2022-12-31T06:49:12.384Z,2.67
2022-12-31T06:51:38.908Z,2.28
2022-12-31T06:54:05.546Z,3.10
2022-12-31T06:56:34.743Z,2.10
2022-12-31T06:59:03.049Z,1.30
2022-12-31T07:01:36.427Z,1.40
2022-12-31T07:04:22.974Z,2.13
2022-12-31T07:07:12.333Z,3.17
2022-12-31T07:09:51.360Z,1.67
2022-12-31T07:12:29.954Z,2.22
2022-12-31T07:15:10.506Z,3.22
2022-12-31T07:17:53.322Z,2.63
2022-12-31T07:20:20.310Z,3.22
2022-12-31T07:22:47.442Z,3.17
2022-12-31T07:25:17.305Z,3.58
2022-12-31T07:27:59.310Z,2.65
2022-12-31T07:30:34.079Z,1.55
2022-12-31T07:33:09.646Z,4.78
2022-12-31T07:35:47.056Z,4.47
2022-12-31T07:38:33.527Z,3.35
2022-12-31T07:41:25.009Z,3.22
2022-12-31T07:44:01.043Z,2.85
2022-12-31T07:46:55.629Z,3.40
2022-12-31T07:49:23.669Z,5.10
2022-12-31T07:51:51.041Z,2.78
2022-12-31T07:54:17.783Z,5.28
2022-12-31T07:56:45.004Z,2.50
2022-12-31T07:59:30.066Z,2.78
2022-12-31T08:02:06.531Z,3.53
2022-12-31T08:04:51.234Z,2.70
2022-12-31T08:07:42.043Z,4.35
2022-12-31T08:10:37.975Z,2.30
2022-12-31T08:13:09.701Z,2.83
2022-12-31T08:18:03.958Z,3.58
2022-12-31T08:20:33.534Z,4.00
2022-12-31T08:23:11.107Z,4.20
2022-12-31T08:26:05.677Z,4.93
2022-12-31T08:28:38.183Z,2.58
2022-12-31T08:31:13.112Z,3.20
2022-12-31T08:34:21.123Z,2.38
2022-12-31T08:37:04.414Z,2.13
2022-12-31T08:39:42.660Z,3.58
2022-12-31T08:42:22.182Z,2.95
2022-12-31T08:44:58.634Z,4.03
2022-12-31T08:48:00.596Z,2.55
2022-12-31T08:50:27.964Z,1.77
2022-12-31T08:52:54.848Z,2.97
2022-12-31T08:55:21.932Z,1.80
2022-12-31T08:58:03.593Z,3.20
2022-12-31T09:00:30.894Z,2.80
2022-12-31T09:03:22.870Z,4.03
2022-12-31T09:06:16.716Z,2.63
2022-12-31T09:09:01.187Z,2.72
2022-12-31T09:11:42.687Z,3.50
2022-12-31T09:14:42.588Z,2.35
2022-12-31T09:17:26.877Z,3.58
2022-12-31T09:19:53.732Z,2.97
2022-12-31T09:22:20.492Z,2.67
2022-12-31T09:24:47.110Z,2.30
2022-12-31T09:27:37.837Z,3.05
2022-12-31T09:30:22.545Z,2.50
2022-12-31T09:32:49.040Z,2.08
2022-12-31T09:35:41.780Z,2.83
2022-12-31T09:38:22.535Z,3.25
2022-12-31T09:41:16.266Z,2.13
2022-12-31T09:44:37.243Z,2.25
2022-12-31T09:47:27.892Z,3.28
2022-12-31T09:50:20.752Z,4.30
2022-12-31T09:53:04.573Z,3.25
2022-12-31T09:55:37.936Z,2.75
2022-12-31T09:58:36.740Z,3.65
2022-12-31T10:01:32.201Z,4.53
2022-12-31T10:04:01.433Z,3.15
2022-12-31T10:06:48.255Z,2.70
2022-12-31T10:09:59.592Z,3.72
2022-12-31T10:12:36.024Z,4.57
2022-12-31T10:15:37.859Z,3.50
2022-12-31T10:18:36.561Z,4.35
2022-12-31T10:21:26.113Z,3.30
2022-12-31T10:24:04.881Z,7.32
2022-12-31T10:27:02.991Z,4.45
2022-12-31T10:30:02.068Z,6.20
2022-12-31T10:33:09.797Z,4.85
2022-12-31T10:35:40.927Z,5.75
2022-12-31T10:38:31.993Z,3.30
2022-12-31T10:41:18.403Z,4.23
2022-12-31T10:44:06.441Z,6.82
2022-12-31T10:46:47.729Z,3.70
2022-12-31T10:49:25.740Z,4.40
2022-12-31T10:52:11.049Z,5.47
2022-12-31T10:55:25.390Z,5.13
2022-12-31T10:58:07.302Z,5.63
2022-12-31T11:03:29.590Z,6.30
2022-12-31T11:06:24.457Z,4.53
2022-12-31T11:09:34.560Z,4.80
2022-12-31T11:12:07.365Z,5.60
2022-12-31T11:14:48.025Z,3.47
2022-12-31T11:17:26.830Z,5.22
2022-12-31T11:20:19.676Z,4.93
2022-12-31T11:23:04.404Z,3.85
2022-12-31T11:25:59.024Z,3.70
2022-12-31T11:28:42.116Z,3.75
2022-12-31T11:31:32.788Z,5.07
2022-12-31T11:34:23.652Z,4.63
2022-12-31T11:37:26.761Z,5.57
2022-12-31T11:40:25.397Z,4.28
2022-12-31T11:43:00.024Z,5.75
2022-12-31T11:45:57.416Z,4.55
2022-12-31T11:48:42.449Z,5.30
2022-12-31T11:51:26.883Z,4.95
2022-12-31T11:54:24.746Z,10.52
2022-12-31T11:57:03.027Z,6.05
2022-12-31T11:59:29.585Z,4.70
2022-12-31T12:02:04.558Z,4.10
2022-12-31T12:04:31.366Z,5.70
2022-12-31T12:06:57.946Z,6.97
2022-12-31T12:09:31.030Z,4.65
2022-12-31T12:12:03.386Z,5.13
2022-12-31T12:14:41.539Z,5.03
2022-12-31T12:17:12.707Z,5.72
2022-12-31T12:19:46.455Z,4.35
2022-12-31T12:22:20.615Z,7.78
2022-12-31T12:25:02.777Z,3.42
2022-12-31T12:27:31.901Z,4.80
2022-12-31T12:30:07.457Z,6.53
2022-12-31T12:32:33.994Z,6.50
2022-12-31T12:35:00.574Z,4.50
2022-12-31T12:37:32.906Z,5.45
2022-12-31T12:40:06.203Z,5.35
2022-12-31T12:42:32.858Z,5.55
2022-12-31T12:45:07.818Z,3.85
2022-12-31T12:47:34.942Z,6.45
2022-12-31T12:50:01.675Z,5.40
2022-12-31T12:52:59.340Z,4.47
2022-12-31T12:55:45.274Z,7.47
2022-12-31T12:58:26.220Z,5.38
2022-12-31T13:01:25.230Z,4.53
2022-12-31T13:04:33.439Z,6.30
2022-12-31T13:07:18.686Z,7.78
2022-12-31T13:09:56.136Z,3.25
2022-12-31T13:15:49.378Z,6.38
2022-12-31T13:18:24.024Z,6.82
2022-12-31T13:21:01.875Z,7.35
2022-12-31T13:23:34.911Z,5.47
2022-12-31T13:26:36.001Z,5.03
2022-12-31T13:29:03.572Z,5.65
2022-12-31T13:31:38.449Z,5.93
2022-12-31T13:34:13.433Z,4.22
2022-12-31T13:36:42.320Z,5.88
2022-12-31T13:39:16.903Z,5.50
2022-12-31T13:41:59.627Z,5.22
2022-12-31T13:44:37.091Z,4.72
2022-12-31T13:47:29.726Z,9.30
2022-12-31T13:50:02.462Z,8.30
2022-12-31T13:52:54.052Z,6.47
2022-12-31T13:55:26.441Z,6.35
2022-12-31T13:58:01.656Z,5.50
2022-12-31T14:00:38.466Z,5.68
2022-12-31T14:03:24.661Z,7.53
2022-12-31T14:06:11.370Z,6.90
2022-12-31T14:08:37.878Z,5.82
2022-12-31T14:11:43.296Z,9.23
2022-12-31T14:14:32.819Z,9.48
2022-12-31T14:17:04.293Z,7.53
2022-12-31T14:19:56.049Z,8.05
2022-12-31T14:22:47.540Z,9.23
2022-12-31T14:25:39.452Z,11.10
2022-12-31T14:28:16.797Z,9.02
2022-12-31T14:30:44.549Z,8.60
2022-12-31T14:33:48.977Z,7.50
2022-12-31T14:36:53.647Z,7.30
2022-12-31T14:39:42.804Z,9.27
2022-12-31T14:42:17.873Z,5.88
2022-12-31T14:45:07.367Z,9.68
2022-12-31T14:47:59.137Z,10.35
2022-12-31T14:50:28.272Z,7.65
2022-12-31T14:52:56.038Z,10.80
2022-12-31T14:55:34.657Z,7.35
2022-12-31T15:01:08.603Z,7.47
2022-12-31T15:03:45.009Z,7.55
2022-12-31T15:06:24.670Z,7.40
2022-12-31T15:09:28.471Z,8.93
2022-12-31T15:12:41.883Z,6.38
2022-12-31T15:15:25.857Z,8.52
2022-12-31T15:18:31.176Z,5.78
2022-12-31T15:21:12.851Z,7.40
2022-12-31T15:23:44.142Z,7.68
2022-12-31T15:26:22.863Z,9.15
2022-12-31T15:28:59.093Z,7.05
2022-12-31T15:31:26.028Z,5.80
2022-12-31T15:33:55.508Z,6.75
2022-12-31T15:36:25.264Z,6.57
2022-12-31T15:38:52.193Z,7.20
2022-12-31T15:41:18.913Z,5.75
2022-12-31T15:43:52.671Z,9.68
2022-12-31T15:46:23.134Z,6.25
2022-12-31T15:49:03.749Z,5.97
2022-12-31T15:51:46.901Z,6.72
2022-12-31T15:56:49.411Z,5.40
2022-12-31T15:59:18.433Z,5.95
2022-12-31T16:01:47.085Z,5.65
2022-12-31T16:04:28.591Z,5.38
2022-12-31T16:07:00.481Z,6.35
2022-12-31T16:09:28.567Z,4.88
2022-12-31T16:11:57.041Z,7.45
2022-12-31T16:14:28.483Z,5.65
2022-12-31T16:16:58.009Z,5.03
2022-12-31T16:19:30.696Z,8.70
2022-12-31T16:22:00.616Z,5.63
2022-12-31T16:24:30.723Z,5.40
2022-12-31T16:27:01.285Z,6.63
2022-12-31T16:29:28.328Z,8.00
2022-12-31T16:31:55.023Z,5.25
2022-12-31T16:34:27.381Z,7.43
2022-12-31T16:37:02.129Z,7.55
2022-12-31T16:39:39.268Z,5.95
2022-12-31T16:42:19.730Z,4.22
2022-12-31T16:44:51.140Z,7.68
2022-12-31T16:47:22.797Z,5.57
2022-12-31T16:52:44.720Z,6.85
2022-12-31T16:55:25.845Z,5.40
2022-12-31T16:58:01.631Z,8.20
2022-12-31T17:00:28.540Z,5.13
2022-12-31T17:03:16.821Z,4.70
2022-12-31T17:06:07.500Z,7.32
2022-12-31T17:08:59.246Z,10.75
2022-12-31T17:11:41.738Z,6.05
2022-12-31T17:14:08.186Z,4.80
2022-12-31T17:16:45.729Z,6.95
2022-12-31T17:19:30.034Z,6.07
2022-12-31T17:21:56.509Z,5.63
2022-12-31T17:24:23.786Z,7.22
2022-12-31T17:26:52.477Z,6.18
2022-12-31T17:29:26.064Z,6.57
2022-12-31T17:32:01.936Z,7.45
2022-12-31T17:34:39.952Z,8.23
2022-12-31T17:37:13.052Z,6.18
2022-12-31T17:39:49.299Z,8.32
2022-12-31T17:44:49.940Z,7.22
2022-12-31T17:47:16.445Z,7.13
2022-12-31T17:49:46.292Z,8.02
2022-12-31T17:52:15.091Z,4.97
2022-12-31T17:54:42.345Z,7.47
2022-12-31T17:57:22.612Z,8.07
2022-12-31T17:59:49.241Z,7.10
2022-12-31T18:02:15.842Z,5.53
2022-12-31T18:04:42.401Z,15.48
2022-12-31T18:07:08.931Z,8.00
2022-12-31T18:09:35.415Z,7.70
2022-12-31T18:12:03.977Z,6.50
2022-12-31T18:14:30.468Z,8.00
2022-12-31T18:16:57.013Z,7.80
2022-12-31T18:19:54.420Z,10.00
2022-12-31T18:22:14.898Z,6.18
2022-12-31T18:24:42.264Z,6.97
2022-12-31T18:27:17.441Z,6.75
2022-12-31T18:29:44.512Z,6.57
2022-12-31T18:32:23.478Z,6.43
2022-12-31T18:34:50.558Z,8.60
2022-12-31T18:37:22.021Z,7.22
2022-12-31T18:42:19.114Z,8.30
2022-12-31T18:44:46.510Z,8.77
2022-12-31T18:47:14.842Z,7.65
2022-12-31T18:49:41.673Z,12.30
2022-12-31T18:52:20.176Z,11.63
2022-12-31T18:54:46.997Z,9.68
2022-12-31T18:57:15.262Z,9.20
2022-12-31T18:59:42.361Z,6.38
2022-12-31T19:02:16.293Z,7.78
2022-12-31T19:04:42.873Z,5.93
2022-12-31T19:07:09.337Z,6.38
2022-12-31T19:09:56.356Z,8.23
2022-12-31T19:12:22.509Z,8.68
2022-12-31T19:14:49.041Z,9.48
2022-12-31T19:17:15.535Z,9.23
2022-12-31T19:19:42.060Z,10.27
2022-12-31T19:22:15.285Z,9.32
2022-12-31T19:24:41.953Z,9.23
2022-12-31T19:27:09.689Z,12.57
2022-12-31T19:29:36.156Z,10.32
2022-12-31T19:32:02.832Z,9.88
2022-12-31T19:34:29.384Z,10.10
2022-12-31T19:36:55.870Z,9.52
2022-12-31T19:39:22.410Z,9.18
2022-12-31T19:41:54.785Z,7.85
2022-12-31T19:44:25.722Z,9.75
2022-12-31T19:46:52.209Z,12.50
2022-12-31T19:49:18.720Z,7.95
2022-12-31T19:51:45.270Z,7.95
2022-12-31T19:54:14.656Z,10.82
2022-12-31T19:56:41.209Z,7.57
2022-12-31T19:59:09.627Z,11.73
2022-12-31T20:01:36.214Z,10.55
2022-12-31T20:04:02.761Z,9.02
2022-12-31T20:06:29.326Z,11.75
2022-12-31T20:08:55.894Z,11.98
2022-12-31T20:11:24.254Z,11.00
2022-12-31T20:13:54.681Z,12.40
2022-12-31T20:16:26.525Z,9.52
2022-12-31T20:18:53.117Z,10.77
2022-12-31T20:21:22.696Z,14.70
2022-12-31T20:23:50.842Z,21.67
2022-12-31T20:26:18.132Z,9.25
2022-12-31T20:28:45.217Z,11.27
2022-12-31T20:31:14.533Z,10.18
2022-12-31T20:33:41.474Z,7.72
2022-12-31T20:36:10.588Z,7.20
2022-12-31T20:38:37.163Z,10.10
2022-12-31T20:41:17.995Z,9.98
2022-12-31T20:43:45.299Z,8.60
2022-12-31T20:46:16.174Z,8.82
2022-12-31T20:48:44.245Z,9.57
2022-12-31T20:51:11.257Z,13.00
2022-12-31T20:53:37.767Z,14.32
2022-12-31T20:56:05.833Z,9.82
2022-12-31T20:58:32.321Z,12.38
2022-12-31T21:00:59.228Z,10.88
2022-12-31T21:04:02.966Z,10.05
2022-12-31T21:06:13.539Z,8.90
2022-12-31T21:08:40.391Z,10.25
2022-12-31T21:11:27.697Z,13.02
2022-12-31T21:13:57.268Z,7.97
2022-12-31T21:16:24.454Z,11.27
2022-12-31T21:18:51.407Z,11.93
2022-12-31T21:21:18.360Z,8.95
2022-12-31T21:23:44.923Z,9.85
2022-12-31T21:26:11.543Z,9.35
2022-12-31T21:28:38.049Z,10.35
2022-12-31T21:31:06.495Z,7.50
2022-12-31T21:33:33.158Z,11.18
2022-12-31T21:36:04.509Z,8.43
2022-12-31T21:38:31.635Z,10.48
2022-12-31T21:41:05.891Z,9.95
2022-12-31T21:43:32.448Z,12.52
2022-12-31T21:46:06.655Z,8.30
2022-12-31T21:48:33.732Z,8.93
2022-12-31T21:51:14.851Z,9.48
2022-12-31T21:53:41.391Z,8.15
2022-12-31T21:56:09.503Z,9.15
2022-12-31T21:58:37.891Z,11.35
2022-12-31T22:01:23.279Z,9.75
2022-12-31T22:03:50.311Z,10.27
2022-12-31T22:06:22.276Z,8.10
2022-12-31T22:08:51.685Z,8.57
2022-12-31T22:11:20.241Z,10.77
2022-12-31T22:13:47.556Z,10.70
2022-12-31T22:16:14.627Z,10.85
2022-12-31T22:18:42.962Z,11.18
2022-12-31T22:21:19.299Z,9.65
2022-12-31T22:23:58.628Z,11.55
2022-12-31T22:26:28.927Z,11.43
2022-12-31T22:28:59.440Z,11.82
2022-12-31T22:31:29.853Z,9.33
2022-12-31T22:33:57.501Z,8.80
2022-12-31T22:36:24.200Z,11.18
2022-12-31T22:38:54.428Z,11.80
2022-12-31T22:41:22.020Z,12.38
2022-12-31T22:43:51.368Z,9.25
2022-12-31T22:46:19.861Z,9.02
2022-12-31T22:48:46.824Z,10.10
2022-12-31T22:51:14.796Z,9.20
2022-12-31T22:53:43.422Z,7.90
2022-12-31T22:56:13.952Z,10.68
2022-12-31T22:58:40.531Z,8.35
2022-12-31T23:01:14.786Z,9.85
2022-12-31T23:03:42.209Z,10.35
2022-12-31T23:06:08.903Z,35.50
2022-12-31T23:08:35.475Z,24.48
2022-12-31T23:11:05.849Z,40.80
2022-12-31T23:13:55.622Z,45.13
2022-12-31T23:16:41.378Z,64.90
2022-12-31T23:19:26.497Z,43.67
2022-12-31T23:22:11.914Z,42.70
2022-12-31T23:24:38.528Z,32.55
2022-12-31T23:27:05.881Z,47.55
2022-12-31T23:29:32.943Z,30.48
2022-12-31T23:31:59.865Z,19.15
2022-12-31T23:34:26.412Z,16.75
2022-12-31T23:36:52.973Z,19.80
2022-12-31T23:39:19.581Z,17.90
2022-12-31T23:41:46.093Z,13.23
2022-12-31T23:44:12.556Z,15.15
2022-12-31T23:46:39.702Z,9.70
2022-12-31T23:49:06.620Z,13.07
2022-12-31T23:51:33.230Z,12.68
2022-12-31T23:54:00.622Z,13.80
2022-12-31T23:56:27.225Z,13.27
2022-12-31T23:58:58.299Z,12.23
